KSTS/STS METAR and TAF weather

Enter ICAO airport designator
Station Type Date Time Source
KSTS METAR 2020/04/05 06:53 UTC NOAA

KSTS 050653Z AUTO 19004KT 10SM -RA FEW021 BKN036 OVC042 10/09 A2972 RMK AO2 SLP058 P0008 T01000094


Station Type Date Time Source
KSTS Decoded METAR 2020/04/05 06:53 UTC NOAA

SANTA ROSA SONOMA COUNTY, CA, United States (KSTS) 38-30N 122-49W 39M
Apr 05, 2020 - 02:53 AM EDT / 2020.04.05 0653 UTC
Wind: from the S (190 degrees) at 5 MPH (4 KT):0
Visibility: 10 mile(s):0
Sky conditions: overcast
Weather: light rain
Precipitation last hour: 0.08 inches
Temperature: 50.0 F (10.0 C)
Dew Point: 48.9 F (9.4 C)
Relative Humidity: 96%
Pressure (altimeter): 29.72 in. Hg (1006 hPa)
ob: KSTS 050653Z AUTO 19004KT 10SM -RA FEW021 BKN036 OVC042 10/09 A2972 RMK AO2 SLP058 P0008 T01000094
cycle: 7

Station Type Date Time Source
KSTS TAF 2020/04/05 06:36 UTC NOAA

TAF KSTS 050535Z 0506/0606 17005KT P6SM -SHRA BKN020 OVC040
FM051200 17010KT 4SM -RA OVC015
FM051500 15012G18KT 2SM RA OVC010
FM051900 22008KT P6SM -SHRA VCTS BKN025 BKN050CB
FM060200 25004KT P6SM BKN050

Example: see airport list